createdAt,value
2023-09-16T00:01:56.202Z,8.68
2023-09-16T00:04:24.837Z,9.63
2023-09-16T00:06:52.516Z,9.93
2023-09-16T00:09:19.280Z,12.20
2023-09-16T00:11:46.609Z,12.15
2023-09-16T00:14:13.330Z,11.18
2023-09-16T00:16:41.870Z,12.18
2023-09-16T00:19:10.616Z,9.48
2023-09-16T00:21:37.500Z,9.73
2023-09-16T00:24:05.070Z,13.60
2023-09-16T00:26:33.373Z,14.27
2023-09-16T00:29:00.634Z,11.57
2023-09-16T00:31:28.425Z,10.95
2023-09-16T00:33:55.952Z,9.35
2023-09-16T00:36:22.921Z,11.25
2023-09-16T00:38:50.570Z,10.23
2023-09-16T00:41:17.580Z,10.20
2023-09-16T00:43:44.981Z,11.18
2023-09-16T00:46:12.423Z,11.18
2023-09-16T00:48:40.486Z,11.02
2023-09-16T00:51:07.980Z,11.00
2023-09-16T00:53:35.582Z,10.60
2023-09-16T00:56:02.497Z,9.93
2023-09-16T00:58:30.473Z,9.45
2023-09-16T01:00:58.715Z,8.93
2023-09-16T01:03:25.712Z,9.65
2023-09-16T01:05:56.169Z,8.98
2023-09-16T01:08:23.861Z,8.68
2023-09-16T01:10:52.183Z,8.57
2023-09-16T01:13:19.075Z,8.38
2023-09-16T01:15:58.828Z,8.52
2023-09-16T01:18:33.160Z,7.93
2023-09-16T01:21:01.714Z,8.20
2023-09-16T01:23:28.711Z,7.13
2023-09-16T01:25:56.127Z,7.40
2023-09-16T01:28:26.006Z,6.97
2023-09-16T01:30:57.255Z,7.30
2023-09-16T01:33:34.156Z,7.82
2023-09-16T01:36:06.582Z,7.50
2023-09-16T01:38:36.546Z,7.70
2023-09-16T01:41:05.720Z,8.18
2023-09-16T01:43:32.680Z,7.63
2023-09-16T01:46:00.158Z,7.00
2023-09-16T01:48:36.467Z,7.00
2023-09-16T01:51:08.095Z,7.68
2023-09-16T01:53:34.889Z,7.80
2023-09-16T01:56:02.197Z,6.60
2023-09-16T01:58:28.964Z,8.40
2023-09-16T02:00:56.499Z,8.10
2023-09-16T02:03:23.186Z,8.10
2023-09-16T02:05:51.268Z,8.82
2023-09-16T02:08:17.962Z,8.48
2023-09-16T02:10:46.593Z,9.00
2023-09-16T02:13:13.289Z,9.13
2023-09-16T02:15:41.769Z,9.50
2023-09-16T02:18:10.213Z,9.50
2023-09-16T02:20:37.191Z,9.40
2023-09-16T02:23:06.042Z,8.73
2023-09-16T02:25:36.240Z,8.35
2023-09-16T02:28:03.739Z,8.00
2023-09-16T02:30:30.503Z,8.30
2023-09-16T02:33:00.685Z,7.50
2023-09-16T02:35:27.384Z,8.27
2023-09-16T02:37:54.709Z,8.27
2023-09-16T02:40:21.428Z,8.82
2023-09-16T02:42:48.780Z,8.80
2023-09-16T02:45:16.656Z,8.35
2023-09-16T02:47:43.996Z,8.27
2023-09-16T02:50:10.867Z,8.75
2023-09-16T02:52:38.176Z,8.20
2023-09-16T02:55:05.148Z,8.57
2023-09-16T02:57:32.532Z,7.82
2023-09-16T03:00:00.716Z,7.50
2023-09-16T03:02:27.754Z,7.32
2023-09-16T03:04:54.559Z,8.25
2023-09-16T03:07:21.913Z,8.80
2023-09-16T03:09:48.653Z,7.82
2023-09-16T03:12:15.970Z,7.55
2023-09-16T03:14:42.774Z,8.10
2023-09-16T03:17:10.154Z,8.88
2023-09-16T03:19:36.978Z,8.02
2023-09-16T03:22:04.691Z,7.95
2023-09-16T03:24:31.442Z,7.72
2023-09-16T03:26:58.772Z,7.10
2023-09-16T03:29:25.851Z,7.53
2023-09-16T03:31:54.314Z,6.75
2023-09-16T03:34:22.210Z,7.47
2023-09-16T03:36:50.084Z,7.40
2023-09-16T03:39:16.737Z,8.18
2023-09-16T03:41:44.282Z,8.93
2023-09-16T03:44:13.510Z,8.38
2023-09-16T03:46:41.147Z,8.85
2023-09-16T03:49:09.244Z,9.25
2023-09-16T03:51:37.767Z,7.72
2023-09-16T03:54:05.993Z,7.78
2023-09-16T03:56:34.130Z,8.43
2023-09-16T03:59:01.762Z,7.43
2023-09-16T04:01:28.570Z,7.25
2023-09-16T04:03:58.885Z,7.30
2023-09-16T04:06:25.653Z,8.40
2023-09-16T04:08:52.980Z,9.43
2023-09-16T04:11:19.638Z,8.55
2023-09-16T04:13:47.235Z,8.90
2023-09-16T04:16:14.821Z,10.10
2023-09-16T04:18:42.304Z,10.55
2023-09-16T04:21:09.074Z,10.98
2023-09-16T04:23:36.456Z,10.52
2023-09-16T04:26:09.129Z,11.30
2023-09-16T04:28:37.345Z,11.05
2023-09-16T04:31:05.416Z,10.60
2023-09-16T04:33:36.559Z,11.20
2023-09-16T04:36:05.073Z,10.40
2023-09-16T04:38:33.023Z,11.23
2023-09-16T04:41:01.168Z,10.70
2023-09-16T04:43:28.721Z,10.43
2023-09-16T04:45:55.746Z,8.82
2023-09-16T04:48:37.272Z,10.25
2023-09-16T04:51:04.757Z,10.55
2023-09-16T04:53:33.782Z,9.40
2023-09-16T04:56:06.699Z,10.35
2023-09-16T04:58:37.930Z,9.80
2023-09-16T05:01:08.003Z,10.00
2023-09-16T05:03:37.146Z,8.85
2023-09-16T05:06:06.303Z,9.63
2023-09-16T05:08:35.563Z,10.05
2023-09-16T05:11:02.681Z,10.30
2023-09-16T05:13:36.448Z,9.45
2023-09-16T05:16:04.808Z,9.98
2023-09-16T05:18:32.277Z,10.45
2023-09-16T05:20:59.985Z,9.20
2023-09-16T05:23:27.496Z,9.75
2023-09-16T05:25:54.238Z,10.10
2023-09-16T05:28:25.856Z,9.48
2023-09-16T05:30:57.822Z,9.82
2023-09-16T05:33:27.244Z,9.43
2023-09-16T05:35:54.080Z,9.05
2023-09-16T05:38:22.348Z,9.75
2023-09-16T05:40:49.112Z,9.73
2023-09-16T05:43:18.562Z,8.93
2023-09-16T05:45:51.888Z,9.05
2023-09-16T05:48:20.392Z,8.98
2023-09-16T05:50:58.483Z,9.30
2023-09-16T05:53:28.996Z,9.48
2023-09-16T05:56:03.506Z,9.43
2023-09-16T05:58:31.569Z,8.45
2023-09-16T06:00:59.006Z,5.82
2023-09-16T06:03:28.535Z,6.85
2023-09-16T06:05:59.850Z,5.68
2023-09-16T06:08:27.553Z,6.13
2023-09-16T06:10:56.786Z,5.40
2023-09-16T06:13:25.297Z,4.97
2023-09-16T06:15:53.568Z,5.07
2023-09-16T06:18:23.748Z,5.38
2023-09-16T06:20:50.556Z,5.55
2023-09-16T06:23:18.052Z,6.03
2023-09-16T06:25:44.980Z,5.80
2023-09-16T06:28:12.301Z,5.65
2023-09-16T06:30:39.043Z,5.60
2023-09-16T06:33:06.661Z,5.53
2023-09-16T06:35:33.423Z,6.13
2023-09-16T06:38:00.978Z,6.03
2023-09-16T06:40:28.162Z,5.57
2023-09-16T06:42:55.623Z,5.97
2023-09-16T06:45:24.322Z,6.85
2023-09-16T06:47:51.517Z,7.18
2023-09-16T06:50:19.053Z,6.50
2023-09-16T06:52:46.028Z,6.80
2023-09-16T06:55:13.755Z,6.82
2023-09-16T06:57:40.454Z,7.18
2023-09-16T07:00:08.405Z,7.47
2023-09-16T07:02:35.202Z,7.78
2023-09-16T07:05:03.033Z,7.82
2023-09-16T07:07:29.828Z,7.57
2023-09-16T07:09:57.188Z,8.15
2023-09-16T07:12:25.603Z,7.93
2023-09-16T07:14:52.997Z,7.50
2023-09-16T07:17:19.657Z,6.65
2023-09-16T07:19:47.011Z,7.07
2023-09-16T07:22:13.769Z,6.60
2023-09-16T07:24:41.350Z,6.82
2023-09-16T07:27:08.159Z,6.90
2023-09-16T07:29:35.666Z,7.00
2023-09-16T07:32:02.414Z,5.78
2023-09-16T07:34:30.062Z,6.00
2023-09-16T07:36:59.733Z,5.90
2023-09-16T07:39:27.192Z,5.63
2023-09-16T07:41:53.937Z,5.43
2023-09-16T07:44:20.986Z,5.40
2023-09-16T07:46:50.054Z,4.90
2023-09-16T07:49:17.020Z,5.18
2023-09-16T07:51:47.331Z,5.00
2023-09-16T07:54:15.476Z,4.88
2023-09-16T07:56:42.970Z,4.28
2023-09-16T07:59:09.737Z,4.80
2023-09-16T08:01:37.178Z,5.00
2023-09-16T08:04:04.060Z,4.18
2023-09-16T08:06:31.548Z,4.40
2023-09-16T08:08:59.678Z,3.88
2023-09-16T08:11:27.167Z,5.05
2023-09-16T08:13:53.885Z,5.18
2023-09-16T08:16:21.435Z,4.45
2023-09-16T08:18:48.445Z,5.05
2023-09-16T08:21:16.056Z,3.95
2023-09-16T08:23:42.709Z,4.60
2023-09-16T08:26:09.998Z,4.07
2023-09-16T08:28:39.703Z,4.25
2023-09-16T08:31:07.183Z,4.43
2023-09-16T08:33:34.571Z,4.35
2023-09-16T08:36:01.246Z,4.68
2023-09-16T08:38:28.617Z,4.57
2023-09-16T08:41:24.435Z,4.50
2023-09-16T08:43:54.682Z,4.03
2023-09-16T08:46:23.196Z,4.35
2023-09-16T08:48:56.026Z,4.32
2023-09-16T08:51:24.124Z,4.28
2023-09-16T08:53:53.437Z,4.85
2023-09-16T08:56:20.571Z,5.03
2023-09-16T08:58:48.285Z,4.00
2023-09-16T09:01:18.935Z,4.95
2023-09-16T09:03:46.626Z,4.15
2023-09-16T09:06:17.962Z,4.07
2023-09-16T09:08:51.158Z,4.25
2023-09-16T09:11:19.332Z,4.57
2023-09-16T09:13:47.895Z,4.30
2023-09-16T09:16:19.936Z,3.83
2023-09-16T09:18:48.744Z,4.07
2023-09-16T09:21:16.685Z,4.40
2023-09-16T09:23:44.048Z,4.38
2023-09-16T09:26:12.314Z,4.18
2023-09-16T09:28:39.643Z,4.97
2023-09-16T09:31:07.560Z,4.20
2023-09-16T09:33:42.486Z,4.00
2023-09-16T09:36:14.158Z,3.92
2023-09-16T09:38:45.886Z,4.63
2023-09-16T09:41:13.813Z,4.50
2023-09-16T09:43:41.554Z,4.90
2023-09-16T09:46:08.504Z,4.13
2023-09-16T09:48:38.589Z,5.05
2023-09-16T09:51:09.485Z,4.45
2023-09-16T09:53:38.357Z,4.38
2023-09-16T09:56:05.475Z,4.47
2023-09-16T09:58:33.834Z,5.18
2023-09-16T10:01:01.440Z,4.72
2023-09-16T10:03:29.034Z,4.78
2023-09-16T10:05:59.298Z,4.75
2023-09-16T10:08:28.824Z,4.95
2023-09-16T10:10:56.108Z,4.25
2023-09-16T10:13:23.814Z,4.55
2023-09-16T10:15:50.685Z,4.70
2023-09-16T10:18:19.637Z,4.55
2023-09-16T10:20:47.787Z,5.82
2023-09-16T10:23:15.570Z,5.40
2023-09-16T10:25:42.595Z,5.05
2023-09-16T10:28:10.623Z,5.70
2023-09-16T10:30:38.632Z,5.75
2023-09-16T10:33:13.403Z,4.78
2023-09-16T10:35:42.128Z,5.15
2023-09-16T10:38:12.995Z,4.97
2023-09-16T10:40:40.363Z,5.25
2023-09-16T10:43:07.802Z,4.82
2023-09-16T10:45:35.600Z,4.88
2023-09-16T10:48:03.281Z,5.47
2023-09-16T10:50:38.081Z,4.93
2023-09-16T10:53:18.572Z,5.63
2023-09-16T10:55:51.851Z,5.97
2023-09-16T10:58:37.522Z,6.25
2023-09-16T11:01:07.807Z,6.25
2023-09-16T11:03:38.542Z,6.45
2023-09-16T11:06:06.294Z,5.97
2023-09-16T11:08:33.068Z,5.88
2023-09-16T11:11:00.899Z,5.95
2023-09-16T11:13:29.825Z,6.05
2023-09-16T11:16:01.555Z,5.55
2023-09-16T11:18:30.605Z,6.60
2023-09-16T11:20:58.114Z,5.75
2023-09-16T11:23:25.423Z,6.20
2023-09-16T11:25:57.063Z,6.10
2023-09-16T11:28:25.602Z,6.85
2023-09-16T11:31:01.039Z,5.22
2023-09-16T11:33:36.224Z,5.40
2023-09-16T11:36:20.261Z,6.57
2023-09-16T11:39:10.926Z,6.03
2023-09-16T11:41:38.725Z,6.70
2023-09-16T11:44:06.358Z,5.65
2023-09-16T11:46:35.228Z,6.07
2023-09-16T11:49:07.549Z,6.40
2023-09-16T11:54:03.132Z,6.15
2023-09-16T11:56:32.830Z,5.88
2023-09-16T11:59:00.039Z,7.22
2023-09-16T12:01:32.221Z,6.60
2023-09-16T12:04:00.326Z,7.65
2023-09-16T12:06:29.110Z,7.32
2023-09-16T12:08:58.345Z,7.60
2023-09-16T12:11:26.977Z,6.50
2023-09-16T12:13:55.656Z,7.68
2023-09-16T12:16:24.041Z,6.57
2023-09-16T12:18:51.313Z,7.40
2023-09-16T12:21:19.169Z,7.65
2023-09-16T12:23:51.913Z,6.28
2023-09-16T12:26:19.897Z,6.15
2023-09-16T12:28:47.096Z,5.70
2023-09-16T12:31:14.902Z,6.22
2023-09-16T12:33:47.107Z,6.70
2023-09-16T12:36:19.376Z,6.40
2023-09-16T12:38:47.706Z,6.40
2023-09-16T12:41:16.675Z,6.90
2023-09-16T12:43:45.691Z,6.70
2023-09-16T12:46:14.026Z,5.78
2023-09-16T12:48:42.808Z,5.50
2023-09-16T12:51:10.893Z,6.03
2023-09-16T12:53:39.012Z,5.95
2023-09-16T12:56:06.937Z,5.95
2023-09-16T12:58:40.225Z,5.70
2023-09-16T13:01:08.403Z,5.78
2023-09-16T13:03:42.160Z,5.07
2023-09-16T13:06:09.481Z,5.75
2023-09-16T13:08:36.955Z,5.07
2023-09-16T13:11:04.758Z,5.65
2023-09-16T13:13:32.041Z,6.07
2023-09-16T13:16:01.199Z,5.70
2023-09-16T13:18:28.085Z,5.15
2023-09-16T13:20:57.331Z,5.93
2023-09-16T13:23:27.268Z,5.40
2023-09-16T13:26:15.389Z,5.93
2023-09-16T13:28:55.086Z,5.85
2023-09-16T13:31:24.537Z,5.85
2023-09-16T13:34:01.641Z,6.20
2023-09-16T13:36:35.271Z,5.57
2023-09-16T13:39:08.721Z,5.43
2023-09-16T13:41:37.987Z,5.47
2023-09-16T13:44:06.164Z,5.60
2023-09-16T13:46:33.831Z,6.10
2023-09-16T13:49:00.568Z,5.25
2023-09-16T13:51:28.495Z,5.65
2023-09-16T13:53:55.285Z,5.28
2023-09-16T13:56:24.884Z,5.03
2023-09-16T13:58:52.605Z,5.93
2023-09-16T14:01:19.933Z,5.25
2023-09-16T14:03:47.472Z,5.63
2023-09-16T14:06:14.249Z,5.75
2023-09-16T14:08:41.619Z,6.10
2023-09-16T14:11:08.275Z,5.53
2023-09-16T14:13:35.669Z,5.50
2023-09-16T14:16:03.127Z,5.63
2023-09-16T14:18:31.384Z,5.75
2023-09-16T14:20:58.070Z,5.90
2023-09-16T14:23:30.081Z,7.03
2023-09-16T14:26:00.754Z,5.37
2023-09-16T14:28:28.139Z,5.07
2023-09-16T14:30:54.901Z,5.00
2023-09-16T14:33:22.408Z,5.40
2023-09-16T14:35:49.059Z,6.10
2023-09-16T14:38:16.418Z,6.22
2023-09-16T14:40:43.093Z,6.28
2023-09-16T14:43:10.425Z,5.50
2023-09-16T14:45:37.192Z,5.78
2023-09-16T14:48:04.822Z,6.00
2023-09-16T14:50:33.257Z,6.40
2023-09-16T14:53:03.039Z,6.18
2023-09-16T14:55:29.982Z,6.43
2023-09-16T14:57:58.006Z,6.93
2023-09-16T15:00:24.792Z,6.45
2023-09-16T15:02:51.781Z,5.88
2023-09-16T15:05:18.476Z,5.78
2023-09-16T15:07:45.575Z,5.80
2023-09-16T15:10:12.943Z,5.82
2023-09-16T15:12:39.701Z,5.45
2023-09-16T15:15:07.725Z,6.47
2023-09-16T15:17:34.488Z,6.00
2023-09-16T15:20:02.334Z,5.88
2023-09-16T15:22:31.224Z,15.15
2023-09-16T15:24:58.752Z,9.10
2023-09-16T15:27:25.472Z,6.78
2023-09-16T15:29:53.616Z,6.60
2023-09-16T15:34:51.671Z,6.22
2023-09-16T15:37:18.760Z,6.03
2023-09-16T15:39:46.163Z,6.22
2023-09-16T15:42:13.822Z,6.88
2023-09-16T15:44:41.203Z,6.95
2023-09-16T15:47:10.057Z,6.40
2023-09-16T15:49:38.656Z,6.47
2023-09-16T15:52:05.460Z,6.80
2023-09-16T15:54:32.896Z,6.45
2023-09-16T15:56:59.543Z,6.72
2023-09-16T15:59:26.880Z,6.50
2023-09-16T16:01:53.606Z,7.20
2023-09-16T16:04:21.183Z,7.40
2023-09-16T16:06:47.873Z,12.95
2023-09-16T16:09:14.863Z,11.35
2023-09-16T16:11:42.284Z,12.23
2023-09-16T16:14:11.092Z,10.43
2023-09-16T16:16:39.834Z,8.52
2023-09-16T16:19:08.416Z,8.15
2023-09-16T16:21:37.681Z,7.43
2023-09-16T16:24:06.343Z,7.28
2023-09-16T16:26:33.958Z,7.30
2023-09-16T16:29:01.338Z,7.07
2023-09-16T16:31:28.742Z,7.47
2023-09-16T16:33:56.831Z,8.40
2023-09-16T16:36:24.361Z,7.90
2023-09-16T16:38:51.066Z,8.45
2023-09-16T16:41:18.419Z,11.32
2023-09-16T16:43:45.168Z,8.90
2023-09-16T16:46:12.811Z,8.27
2023-09-16T16:48:39.694Z,8.13
2023-09-16T16:51:07.137Z,7.82
2023-09-16T16:53:34.893Z,7.55
2023-09-16T16:56:03.092Z,7.75
2023-09-16T16:58:29.803Z,8.18
2023-09-16T17:00:57.953Z,8.93
2023-09-16T17:03:24.890Z,11.73
2023-09-16T17:05:52.331Z,9.50
2023-09-16T17:08:19.026Z,8.75
2023-09-16T17:10:46.420Z,10.73
2023-09-16T17:13:13.789Z,9.63
2023-09-16T17:15:42.069Z,9.55
2023-09-16T17:18:10.690Z,11.43
2023-09-16T17:20:38.210Z,10.32
2023-09-16T17:23:05.567Z,11.23
2023-09-16T17:25:32.929Z,10.82
2023-09-16T17:27:59.684Z,11.38
2023-09-16T17:30:27.802Z,11.50
2023-09-16T17:32:54.946Z,9.73
2023-09-16T17:35:21.654Z,9.93
2023-09-16T17:37:50.220Z,10.25
2023-09-16T17:40:17.075Z,10.00
2023-09-16T17:42:45.357Z,9.73
2023-09-16T17:45:12.068Z,9.38
2023-09-16T17:47:39.444Z,9.68
2023-09-16T17:50:07.144Z,8.70
2023-09-16T17:52:34.668Z,9.63
2023-09-16T17:55:01.406Z,8.20
2023-09-16T17:57:28.743Z,8.77
2023-09-16T17:59:55.452Z,9.57
2023-09-16T18:02:23.167Z,9.45
2023-09-16T18:04:49.946Z,9.40
2023-09-16T18:07:17.304Z,9.90
2023-09-16T18:09:43.989Z,9.88
2023-09-16T18:12:11.507Z,9.85
2023-09-16T18:14:38.153Z,9.98
2023-09-16T18:17:05.555Z,11.75
2023-09-16T18:19:32.341Z,11.75
2023-09-16T18:21:59.742Z,12.65
2023-09-16T18:24:26.459Z,11.45
2023-09-16T18:26:53.832Z,11.32
2023-09-16T18:29:22.667Z,11.32
2023-09-16T18:31:50.218Z,11.50
2023-09-16T18:34:17.208Z,10.50
2023-09-16T18:36:44.546Z,10.30
2023-09-16T18:39:12.841Z,11.57
2023-09-16T18:41:40.363Z,12.23
2023-09-16T18:44:07.144Z,11.75
2023-09-16T18:46:34.863Z,11.98
2023-09-16T18:49:01.692Z,11.65
2023-09-16T18:51:29.724Z,12.30
2023-09-16T18:53:57.209Z,12.73
2023-09-16T18:56:24.779Z,12.05
2023-09-16T18:58:52.506Z,12.32
2023-09-16T19:01:19.732Z,10.73
2023-09-16T19:03:47.060Z,11.27
2023-09-16T19:06:14.248Z,11.18
2023-09-16T19:08:41.585Z,10.80
2023-09-16T19:11:08.251Z,13.73
2023-09-16T19:13:35.639Z,70.28
2023-09-16T19:16:02.495Z,30.73
2023-09-16T19:18:30.141Z,24.73
2023-09-16T19:20:58.248Z,16.83
2023-09-16T19:23:26.376Z,14.77
2023-09-16T19:25:53.890Z,13.93
2023-09-16T19:28:21.864Z,14.30
2023-09-16T19:30:48.640Z,14.50
2023-09-16T19:33:16.466Z,14.73
2023-09-16T19:35:43.282Z,15.02
2023-09-16T19:38:10.604Z,16.30
2023-09-16T19:40:37.409Z,16.05
2023-09-16T19:43:05.384Z,16.23
2023-09-16T19:45:32.077Z,15.52
2023-09-16T19:47:59.696Z,16.60
2023-09-16T19:50:27.453Z,17.75
2023-09-16T19:52:54.915Z,18.60
2023-09-16T19:55:21.708Z,17.17
2023-09-16T19:57:49.209Z,17.20
2023-09-16T20:00:16.975Z,17.65
2023-09-16T20:02:44.305Z,17.75
2023-09-16T20:05:11.785Z,19.52
2023-09-16T20:07:38.483Z,20.58
2023-09-16T20:10:06.947Z,19.63
2023-09-16T20:12:34.169Z,20.27
2023-09-16T20:15:01.540Z,20.55
2023-09-16T20:17:28.344Z,21.27
2023-09-16T20:19:55.812Z,21.45
2023-09-16T20:22:22.562Z,22.50
2023-09-16T20:24:50.024Z,22.92
2023-09-16T20:27:16.769Z,22.30
2023-09-16T20:29:44.062Z,23.13
2023-09-16T20:32:12.210Z,24.15
2023-09-16T20:34:39.664Z,24.27
2023-09-16T20:37:06.394Z,24.77
2023-09-16T20:39:34.960Z,24.52
2023-09-16T20:42:02.058Z,24.75
2023-09-16T20:44:30.306Z,24.90
2023-09-16T20:46:57.293Z,25.15
2023-09-16T20:49:24.946Z,26.73
2023-09-16T20:51:51.726Z,28.10
2023-09-16T20:54:19.586Z,29.25
2023-09-16T20:56:46.313Z,27.77
2023-09-16T20:59:13.865Z,27.73
2023-09-16T21:01:40.909Z,27.23
2023-09-16T21:04:08.316Z,26.02
2023-09-16T21:06:35.055Z,28.70
2023-09-16T21:09:02.445Z,28.45
2023-09-16T21:11:31.397Z,27.60
2023-09-16T21:13:59.514Z,26.85
2023-09-16T21:16:26.449Z,26.95
2023-09-16T21:18:54.790Z,27.90
2023-09-16T21:21:21.512Z,28.25
2023-09-16T21:23:48.773Z,28.48
2023-09-16T21:26:16.325Z,29.83
2023-09-16T21:28:43.045Z,29.55
2023-09-16T21:31:10.567Z,29.60
2023-09-16T21:33:37.507Z,29.48
2023-09-16T21:36:05.016Z,29.90
2023-09-16T21:38:31.756Z,30.15
2023-09-16T21:40:59.718Z,30.13
2023-09-16T21:43:26.717Z,30.52
2023-09-16T21:45:56.799Z,30.88
2023-09-16T21:48:23.740Z,28.80
2023-09-16T21:50:55.550Z,30.35
2023-09-16T21:53:22.278Z,30.48
2023-09-16T21:55:49.620Z,29.38
2023-09-16T21:58:17.292Z,30.55
2023-09-16T22:00:45.289Z,29.20
2023-09-16T22:03:12.373Z,30.63
2023-09-16T22:05:40.828Z,29.80
2023-09-16T22:08:07.625Z,31.20
2023-09-16T22:10:38.649Z,32.60
2023-09-16T22:13:05.639Z,32.60
2023-09-16T22:15:35.383Z,34.03
2023-09-16T22:18:03.077Z,34.25
2023-09-16T22:20:30.737Z,36.30
2023-09-16T22:22:57.434Z,38.15
2023-09-16T22:25:25.215Z,36.65
2023-09-16T22:27:52.356Z,36.05
2023-09-16T22:30:20.856Z,37.28
2023-09-16T22:32:48.307Z,38.17
2023-09-16T22:35:15.660Z,38.05
2023-09-16T22:37:42.716Z,36.92
2023-09-16T22:40:11.010Z,39.33
2023-09-16T22:42:37.865Z,39.92
2023-09-16T22:45:06.955Z,39.70
2023-09-16T22:47:35.064Z,39.92
2023-09-16T22:50:02.188Z,39.92
2023-09-16T22:52:31.799Z,33.40
2023-09-16T22:54:59.859Z,32.03
2023-09-16T22:57:27.285Z,30.58
2023-09-16T22:59:55.063Z,30.63
2023-09-16T23:02:23.760Z,30.55
2023-09-16T23:04:51.436Z,30.75
2023-09-16T23:07:20.041Z,28.45
2023-09-16T23:09:46.857Z,20.52
2023-09-16T23:12:14.207Z,14.98
2023-09-16T23:14:40.925Z,13.52
2023-09-16T23:17:08.858Z,13.27
2023-09-16T23:19:35.808Z,12.50
2023-09-16T23:22:03.978Z,12.38
2023-09-16T23:24:30.797Z,9.95
2023-09-16T23:26:58.113Z,9.88
2023-09-16T23:29:24.846Z,8.43
2023-09-16T23:31:52.262Z,8.90
2023-09-16T23:34:19.005Z,8.20
2023-09-16T23:36:46.351Z,8.15
2023-09-16T23:39:13.059Z,8.63
2023-09-16T23:41:41.490Z,9.73
2023-09-16T23:44:08.560Z,14.45
2023-09-16T23:46:37.111Z,18.33
2023-09-16T23:49:04.279Z,21.17
2023-09-16T23:51:31.652Z,19.02
2023-09-16T23:53:58.633Z,15.93
2023-09-16T23:56:26.904Z,13.85
2023-09-16T23:58:53.606Z,16.45
